sensor_id;sensor_type;location;lat;lon;timestamp;temperature;humidity
35613;DHT22;22054;51.646;7.078;2022-08-03T00:01:57;20.70;1.00
35613;DHT22;22054;51.646;7.078;2022-08-03T00:04:23;20.60;1.00
35613;DHT22;22054;51.646;7.078;2022-08-03T00:06:49;20.60;1.00
35613;DHT22;22054;51.646;7.078;2022-08-03T00:09:15;20.60;1.00
35613;DHT22;22054;51.646;7.078;2022-08-03T00:11:41;20.60;1.00
35613;DHT22;22054;51.646;7.078;2022-08-03T00:14:07;20.60;1.00
35613;DHT22;22054;51.646;7.078;2022-08-03T00:16:33;20.60;1.00
35613;DHT22;22054;51.646;7.078;2022-08-03T00:18:59;20.50;1.00
35613;DHT22;22054;51.646;7.078;2022-08-03T00:21:26;20.50;1.00
35613;DHT22;22054;51.646;7.078;2022-08-03T00:23:51;20.60;1.00
35613;DHT22;22054;51.646;7.078;2022-08-03T00:26:17;20.40;1.00
35613;DHT22;22054;51.646;7.078;2022-08-03T00:28:43;20.50;1.00
35613;DHT22;22054;51.646;7.078;2022-08-03T00:31:09;20.50;1.00
35613;DHT22;22054;51.646;7.078;2022-08-03T00:33:35;20.50;1.00
35613;DHT22;22054;51.646;7.078;2022-08-03T00:36:00;20.40;1.00
35613;DHT22;22054;51.646;7.078;2022-08-03T00:38:26;20.50;1.00
35613;DHT22;22054;51.646;7.078;2022-08-03T00:40:52;20.40;1.00
35613;DHT22;22054;51.646;7.078;2022-08-03T00:43:17;20.40;1.00
35613;DHT22;22054;51.646;7.078;2022-08-03T00:45:43;20.40;1.00
35613;DHT22;22054;51.646;7.078;2022-08-03T00:48:10;20.40;1.00
35613;DHT22;22054;51.646;7.078;2022-08-03T00:50:41;20.40;1.00
35613;DHT22;22054;51.646;7.078;2022-08-03T00:53:09;20.40;1.00
35613;DHT22;22054;51.646;7.078;2022-08-03T00:55:39;20.40;1.00
35613;DHT22;22054;51.646;7.078;2022-08-03T00:58:06;20.60;1.00
35613;DHT22;22054;51.646;7.078;2022-08-03T01:00:34;20.30;1.00
35613;DHT22;22054;51.646;7.078;2022-08-03T01:03:04;20.30;1.00
35613;DHT22;22054;51.646;7.078;2022-08-03T01:08:31;20.20;1.00
35613;DHT22;22054;51.646;7.078;2022-08-03T01:11:14;20.20;1.00
35613;DHT22;22054;51.646;7.078;2022-08-03T01:14:05;20.20;1.00
35613;DHT22;22054;51.646;7.078;2022-08-03T01:17:02;20.20;1.00
35613;DHT22;22054;51.646;7.078;2022-08-03T01:30:52;20.00;1.00
35613;DHT22;22054;51.646;7.078;2022-08-03T01:33:27;20.00;1.00
35613;DHT22;22054;51.646;7.078;2022-08-03T01:36:11;19.90;1.00
35613;DHT22;22054;51.646;7.078;2022-08-03T01:38:50;19.90;1.00
35613;DHT22;22054;51.646;7.078;2022-08-03T01:41:25;19.90;1.00
35613;DHT22;22054;51.646;7.078;2022-08-03T01:43:59;19.80;1.00
35613;DHT22;22054;51.646;7.078;2022-08-03T01:46:28;19.80;1.00
35613;DHT22;22054;51.646;7.078;2022-08-03T01:48:55;19.80;1.00
35613;DHT22;22054;51.646;7.078;2022-08-03T01:51:24;19.70;1.00
35613;DHT22;22054;51.646;7.078;2022-08-03T01:53:54;19.70;1.00
35613;DHT22;22054;51.646;7.078;2022-08-03T01:56:23;19.70;1.00
35613;DHT22;22054;51.646;7.078;2022-08-03T01:58:50;19.70;1.00
35613;DHT22;22054;51.646;7.078;2022-08-03T02:01:17;19.60;1.00
35613;DHT22;22054;51.646;7.078;2022-08-03T02:03:45;19.50;1.00
35613;DHT22;22054;51.646;7.078;2022-08-03T02:06:12;19.60;1.00
35613;DHT22;22054;51.646;7.078;2022-08-03T02:08:42;19.50;1.00
35613;DHT22;22054;51.646;7.078;2022-08-03T02:11:09;19.40;2.80
35613;DHT22;22054;51.646;7.078;2022-08-03T02:13:37;19.60;8.60
35613;DHT22;22054;51.646;7.078;2022-08-03T02:16:04;19.40;12.60
35613;DHT22;22054;51.646;7.078;2022-08-03T02:18:31;19.40;14.80
35613;DHT22;22054;51.646;7.078;2022-08-03T02:21:02;19.40;16.80
35613;DHT22;22054;51.646;7.078;2022-08-03T02:23:29;19.60;16.00
35613;DHT22;22054;51.646;7.078;2022-08-03T02:26:01;19.30;14.70
35613;DHT22;22054;51.646;7.078;2022-08-03T02:28:34;19.40;20.70
35613;DHT22;22054;51.646;7.078;2022-08-03T02:31:04;19.30;18.90
35613;DHT22;22054;51.646;7.078;2022-08-03T02:33:35;19.30;15.90
35613;DHT22;22054;51.646;7.078;2022-08-03T02:36:03;19.30;18.00
35613;DHT22;22054;51.646;7.078;2022-08-03T02:38:35;19.30;20.40
35613;DHT22;22054;51.646;7.078;2022-08-03T02:41:07;19.30;24.50
35613;DHT22;22054;51.646;7.078;2022-08-03T02:43:36;19.30;26.20
35613;DHT22;22054;51.646;7.078;2022-08-03T02:46:02;19.50;24.20
35613;DHT22;22054;51.646;7.078;2022-08-03T02:48:30;19.30;19.40
35613;DHT22;22054;51.646;7.078;2022-08-03T02:50:58;19.30;19.00
35613;DHT22;22054;51.646;7.078;2022-08-03T02:53:25;19.30;18.20
35613;DHT22;22054;51.646;7.078;2022-08-03T02:55:52;19.20;19.60
35613;DHT22;22054;51.646;7.078;2022-08-03T02:58:20;19.30;23.30
35613;DHT22;22054;51.646;7.078;2022-08-03T03:00:48;19.20;25.60
35613;DHT22;22054;51.646;7.078;2022-08-03T03:03:16;19.20;24.90
35613;DHT22;22054;51.646;7.078;2022-08-03T03:05:43;19.20;25.60
35613;DHT22;22054;51.646;7.078;2022-08-03T03:08:15;19.20;26.70
35613;DHT22;22054;51.646;7.078;2022-08-03T03:10:43;19.20;22.10
35613;DHT22;22054;51.646;7.078;2022-08-03T03:13:09;19.20;22.90
35613;DHT22;22054;51.646;7.078;2022-08-03T03:15:37;19.00;29.80
35613;DHT22;22054;51.646;7.078;2022-08-03T03:18:06;19.20;31.60
35613;DHT22;22054;51.646;7.078;2022-08-03T03:20:35;19.20;33.40
35613;DHT22;22054;51.646;7.078;2022-08-03T03:23:02;19.20;39.80
35613;DHT22;22054;51.646;7.078;2022-08-03T03:25:32;19.00;36.00
35613;DHT22;22054;51.646;7.078;2022-08-03T03:27:59;19.00;38.50
35613;DHT22;22054;51.646;7.078;2022-08-03T03:30:26;19.20;39.10
35613;DHT22;22054;51.646;7.078;2022-08-03T03:32:52;19.20;44.10
35613;DHT22;22054;51.646;7.078;2022-08-03T03:35:18;19.20;40.70
35613;DHT22;22054;51.646;7.078;2022-08-03T03:37:44;19.10;32.90
35613;DHT22;22054;51.646;7.078;2022-08-03T03:40:10;19.00;27.20
35613;DHT22;22054;51.646;7.078;2022-08-03T03:42:36;19.20;26.10
35613;DHT22;22054;51.646;7.078;2022-08-03T03:45:06;19.20;25.40
35613;DHT22;22054;51.646;7.078;2022-08-03T03:47:33;19.20;26.20
35613;DHT22;22054;51.646;7.078;2022-08-03T03:50:02;19.40;26.10
35613;DHT22;22054;51.646;7.078;2022-08-03T03:52:28;19.20;29.20
35613;DHT22;22054;51.646;7.078;2022-08-03T03:54:54;19.30;27.80
35613;DHT22;22054;51.646;7.078;2022-08-03T03:57:19;19.30;27.10
35613;DHT22;22054;51.646;7.078;2022-08-03T03:59:45;19.20;24.40
35613;DHT22;22054;51.646;7.078;2022-08-03T04:02:11;19.20;22.80
35613;DHT22;22054;51.646;7.078;2022-08-03T04:04:37;19.20;21.90
35613;DHT22;22054;51.646;7.078;2022-08-03T04:07:24;19.20;20.10
35613;DHT22;22054;51.646;7.078;2022-08-03T04:10:21;19.20;21.50
35613;DHT22;22054;51.646;7.078;2022-08-03T04:13:09;19.10;25.50
35613;DHT22;22054;51.646;7.078;2022-08-03T04:15:40;19.20;21.80
35613;DHT22;22054;51.646;7.078;2022-08-03T04:18:08;19.20;22.90
35613;DHT22;22054;51.646;7.078;2022-08-03T04:20:38;19.20;22.00
35613;DHT22;22054;51.646;7.078;2022-08-03T04:23:05;19.20;26.00
35613;DHT22;22054;51.646;7.078;2022-08-03T04:25:33;19.20;30.60
35613;DHT22;22054;51.646;7.078;2022-08-03T04:28:03;19.20;39.10
35613;DHT22;22054;51.646;7.078;2022-08-03T04:30:32;19.20;38.70
35613;DHT22;22054;51.646;7.078;2022-08-03T04:33:01;19.30;35.30
35613;DHT22;22054;51.646;7.078;2022-08-03T04:35:30;19.30;34.80
35613;DHT22;22054;51.646;7.078;2022-08-03T04:38:01;19.30;31.40
35613;DHT22;22054;51.646;7.078;2022-08-03T04:40:40;19.30;36.40
35613;DHT22;22054;51.646;7.078;2022-08-03T04:43:09;19.30;45.40
35613;DHT22;22054;51.646;7.078;2022-08-03T04:45:36;19.30;42.40
35613;DHT22;22054;51.646;7.078;2022-08-03T04:48:03;19.40;32.20
35613;DHT22;22054;51.646;7.078;2022-08-03T04:50:29;19.50;24.50
35613;DHT22;22054;51.646;7.078;2022-08-03T04:52:55;19.60;12.90
35613;DHT22;22054;51.646;7.078;2022-08-03T04:55:31;19.60;7.00
35613;DHT22;22054;51.646;7.078;2022-08-03T04:57:59;19.60;7.10
35613;DHT22;22054;51.646;7.078;2022-08-03T05:00:25;19.70;4.70
35613;DHT22;22054;51.646;7.078;2022-08-03T05:02:52;19.70;3.20
35613;DHT22;22054;51.646;7.078;2022-08-03T05:05:21;19.80;1.00
35613;DHT22;22054;51.646;7.078;2022-08-03T05:07:47;20.00;1.00
35613;DHT22;22054;51.646;7.078;2022-08-03T05:10:13;20.10;1.00
35613;DHT22;22054;51.646;7.078;2022-08-03T05:12:39;20.00;1.00
35613;DHT22;22054;51.646;7.078;2022-08-03T05:15:06;20.00;1.00
35613;DHT22;22054;51.646;7.078;2022-08-03T05:17:32;20.20;1.00
35613;DHT22;22054;51.646;7.078;2022-08-03T05:20:01;20.20;1.00
35613;DHT22;22054;51.646;7.078;2022-08-03T05:22:30;20.20;1.00
35613;DHT22;22054;51.646;7.078;2022-08-03T05:24:56;20.30;1.00
35613;DHT22;22054;51.646;7.078;2022-08-03T05:27:22;20.40;1.00
35613;DHT22;22054;51.646;7.078;2022-08-03T05:29:49;20.50;1.00
35613;DHT22;22054;51.646;7.078;2022-08-03T05:32:16;20.60;1.00
35613;DHT22;22054;51.646;7.078;2022-08-03T05:34:42;20.70;1.00
35613;DHT22;22054;51.646;7.078;2022-08-03T05:37:09;20.70;1.00
35613;DHT22;22054;51.646;7.078;2022-08-03T05:39:35;20.90;1.00
35613;DHT22;22054;51.646;7.078;2022-08-03T05:42:01;21.00;1.00
35613;DHT22;22054;51.646;7.078;2022-08-03T05:44:27;21.20;1.00
35613;DHT22;22054;51.646;7.078;2022-08-03T05:46:53;21.30;1.00
35613;DHT22;22054;51.646;7.078;2022-08-03T05:49:19;21.30;1.00
35613;DHT22;22054;51.646;7.078;2022-08-03T05:51:45;21.50;1.00
35613;DHT22;22054;51.646;7.078;2022-08-03T05:54:11;21.60;1.00
35613;DHT22;22054;51.646;7.078;2022-08-03T05:56:37;21.70;1.00
35613;DHT22;22054;51.646;7.078;2022-08-03T05:59:05;21.80;1.00
35613;DHT22;22054;51.646;7.078;2022-08-03T06:01:31;21.90;1.00
35613;DHT22;22054;51.646;7.078;2022-08-03T06:03:57;22.30;1.00
35613;DHT22;22054;51.646;7.078;2022-08-03T06:06:23;22.10;1.00
35613;DHT22;22054;51.646;7.078;2022-08-03T06:08:49;22.20;1.00
35613;DHT22;22054;51.646;7.078;2022-08-03T06:11:15;22.10;19.00
35613;DHT22;22054;51.646;7.078;2022-08-03T06:13:41;22.30;99.90
35613;DHT22;22054;51.646;7.078;2022-08-03T06:16:08;22.60;67.70
35613;DHT22;22054;51.646;7.078;2022-08-03T06:18:34;22.40;1.00
35613;DHT22;22054;51.646;7.078;2022-08-03T06:21:00;22.50;1.00
35613;DHT22;22054;51.646;7.078;2022-08-03T06:23:26;22.60;99.90
35613;DHT22;22054;51.646;7.078;2022-08-03T06:25:52;22.60;1.00
35613;DHT22;22054;51.646;7.078;2022-08-03T06:28:18;22.70;1.00
35613;DHT22;22054;51.646;7.078;2022-08-03T06:30:44;22.80;1.00
35613;DHT22;22054;51.646;7.078;2022-08-03T06:33:10;22.90;1.00
35613;DHT22;22054;51.646;7.078;2022-08-03T06:35:36;23.00;1.00
35613;DHT22;22054;51.646;7.078;2022-08-03T06:38:02;23.10;1.00
35613;DHT22;22054;51.646;7.078;2022-08-03T06:40:28;23.20;1.00
35613;DHT22;22054;51.646;7.078;2022-08-03T06:43:00;23.30;99.90
35613;DHT22;22054;51.646;7.078;2022-08-03T06:45:28;23.40;84.20
35613;DHT22;22054;51.646;7.078;2022-08-03T06:48:05;23.30;99.90
35613;DHT22;22054;51.646;7.078;2022-08-03T06:50:33;23.40;99.90
35613;DHT22;22054;51.646;7.078;2022-08-03T06:53:00;23.30;99.90
35613;DHT22;22054;51.646;7.078;2022-08-03T06:55:27;23.50;1.00
35613;DHT22;22054;51.646;7.078;2022-08-03T06:57:53;23.50;1.00
35613;DHT22;22054;51.646;7.078;2022-08-03T07:00:19;23.40;1.00
35613;DHT22;22054;51.646;7.078;2022-08-03T07:02:45;23.70;1.00
35613;DHT22;22054;51.646;7.078;2022-08-03T07:05:11;23.50;99.90
35613;DHT22;22054;51.646;7.078;2022-08-03T07:07:38;23.60;1.00
35613;DHT22;22054;51.646;7.078;2022-08-03T07:10:06;23.60;99.90
35613;DHT22;22054;51.646;7.078;2022-08-03T07:12:33;23.70;1.00
35613;DHT22;22054;51.646;7.078;2022-08-03T07:15:00;23.90;1.00
35613;DHT22;22054;51.646;7.078;2022-08-03T07:17:27;23.80;78.90
35613;DHT22;22054;51.646;7.078;2022-08-03T07:19:57;24.00;99.90
35613;DHT22;22054;51.646;7.078;2022-08-03T07:22:24;24.00;1.00
35613;DHT22;22054;51.646;7.078;2022-08-03T07:24:50;24.20;1.00
35613;DHT22;22054;51.646;7.078;2022-08-03T07:27:16;24.30;99.90
35613;DHT22;22054;51.646;7.078;2022-08-03T07:29:41;24.30;1.00
35613;DHT22;22054;51.646;7.078;2022-08-03T07:32:07;24.10;1.00
35613;DHT22;22054;51.646;7.078;2022-08-03T07:34:33;24.30;99.90
35613;DHT22;22054;51.646;7.078;2022-08-03T07:36:58;24.30;1.00
35613;DHT22;22054;51.646;7.078;2022-08-03T07:39:24;24.30;8.10
35613;DHT22;22054;51.646;7.078;2022-08-03T07:41:50;24.40;99.90
35613;DHT22;22054;51.646;7.078;2022-08-03T07:44:16;24.50;99.90
35613;DHT22;22054;51.646;7.078;2022-08-03T07:46:43;24.50;1.00
35613;DHT22;22054;51.646;7.078;2022-08-03T07:49:09;24.70;1.00
35613;DHT22;22054;51.646;7.078;2022-08-03T07:51:34;24.90;1.00
35613;DHT22;22054;51.646;7.078;2022-08-03T07:54:00;25.10;1.00
35613;DHT22;22054;51.646;7.078;2022-08-03T07:56:26;25.00;1.00
35613;DHT22;22054;51.646;7.078;2022-08-03T07:58:53;25.00;1.00
35613;DHT22;22054;51.646;7.078;2022-08-03T08:01:19;24.90;1.00
35613;DHT22;22054;51.646;7.078;2022-08-03T08:03:45;24.90;1.00
35613;DHT22;22054;51.646;7.078;2022-08-03T08:06:11;24.70;1.00
35613;DHT22;22054;51.646;7.078;2022-08-03T08:08:38;24.70;1.00
35613;DHT22;22054;51.646;7.078;2022-08-03T08:11:04;24.90;1.00
35613;DHT22;22054;51.646;7.078;2022-08-03T08:13:30;24.90;99.90
35613;DHT22;22054;51.646;7.078;2022-08-03T08:15:56;25.00;99.90
35613;DHT22;22054;51.646;7.078;2022-08-03T08:18:22;25.10;1.00
35613;DHT22;22054;51.646;7.078;2022-08-03T08:20:53;25.40;99.90
35613;DHT22;22054;51.646;7.078;2022-08-03T08:23:20;25.40;1.00
35613;DHT22;22054;51.646;7.078;2022-08-03T08:25:49;25.50;1.00
35613;DHT22;22054;51.646;7.078;2022-08-03T08:28:17;25.80;1.00
35613;DHT22;22054;51.646;7.078;2022-08-03T08:30:44;25.70;1.00
35613;DHT22;22054;51.646;7.078;2022-08-03T08:33:10;25.80;1.00
35613;DHT22;22054;51.646;7.078;2022-08-03T08:35:36;26.00;1.00
35613;DHT22;22054;51.646;7.078;2022-08-03T08:38:01;26.20;1.00
35613;DHT22;22054;51.646;7.078;2022-08-03T08:40:28;26.30;99.90
35613;DHT22;22054;51.646;7.078;2022-08-03T08:42:54;26.60;99.90
35613;DHT22;22054;51.646;7.078;2022-08-03T08:45:19;26.70;1.00
35613;DHT22;22054;51.646;7.078;2022-08-03T08:47:47;26.70;1.00
35613;DHT22;22054;51.646;7.078;2022-08-03T08:50:20;26.80;1.00
35613;DHT22;22054;51.646;7.078;2022-08-03T08:52:48;26.40;1.00
35613;DHT22;22054;51.646;7.078;2022-08-03T08:55:18;26.70;1.00
35613;DHT22;22054;51.646;7.078;2022-08-03T08:57:56;26.80;1.00
35613;DHT22;22054;51.646;7.078;2022-08-03T09:00:23;26.80;1.00
35613;DHT22;22054;51.646;7.078;2022-08-03T09:02:49;26.80;1.00
35613;DHT22;22054;51.646;7.078;2022-08-03T09:05:16;26.90;1.00
35613;DHT22;22054;51.646;7.078;2022-08-03T09:07:45;27.10;1.00
35613;DHT22;22054;51.646;7.078;2022-08-03T09:10:16;27.10;1.00
35613;DHT22;22054;51.646;7.078;2022-08-03T09:12:51;27.10;1.00
35613;DHT22;22054;51.646;7.078;2022-08-03T09:15:27;27.30;1.00
35613;DHT22;22054;51.646;7.078;2022-08-03T09:17:59;27.40;1.00
35613;DHT22;22054;51.646;7.078;2022-08-03T09:20:29;27.60;1.00
35613;DHT22;22054;51.646;7.078;2022-08-03T09:23:04;27.30;1.00
35613;DHT22;22054;51.646;7.078;2022-08-03T09:25:38;27.30;1.00
35613;DHT22;22054;51.646;7.078;2022-08-03T09:28:08;27.50;1.00
35613;DHT22;22054;51.646;7.078;2022-08-03T09:30:40;27.60;1.00
35613;DHT22;22054;51.646;7.078;2022-08-03T09:33:10;27.60;1.00
35613;DHT22;22054;51.646;7.078;2022-08-03T09:35:46;27.60;1.00
35613;DHT22;22054;51.646;7.078;2022-08-03T09:38:22;27.90;99.90
35613;DHT22;22054;51.646;7.078;2022-08-03T09:40:49;27.80;1.00
35613;DHT22;22054;51.646;7.078;2022-08-03T09:43:15;27.90;1.00
35613;DHT22;22054;51.646;7.078;2022-08-03T09:45:41;28.10;1.00
35613;DHT22;22054;51.646;7.078;2022-08-03T09:48:26;28.20;99.90
35613;DHT22;22054;51.646;7.078;2022-08-03T09:50:56;28.40;99.90
35613;DHT22;22054;51.646;7.078;2022-08-03T09:53:24;28.40;99.90
35613;DHT22;22054;51.646;7.078;2022-08-03T09:55:54;28.30;99.90
35613;DHT22;22054;51.646;7.078;2022-08-03T09:58:25;28.30;99.90
35613;DHT22;22054;51.646;7.078;2022-08-03T10:01:00;28.50;99.90
35613;DHT22;22054;51.646;7.078;2022-08-03T10:03:32;28.70;99.90
35613;DHT22;22054;51.646;7.078;2022-08-03T10:06:14;29.00;99.90
35613;DHT22;22054;51.646;7.078;2022-08-03T10:08:41;29.20;99.90
35613;DHT22;22054;51.646;7.078;2022-08-03T10:11:07;29.20;99.90
35613;DHT22;22054;51.646;7.078;2022-08-03T10:13:33;29.10;99.90
35613;DHT22;22054;51.646;7.078;2022-08-03T10:15:58;29.30;99.90
35613;DHT22;22054;51.646;7.078;2022-08-03T10:18:24;29.00;99.90
35613;DHT22;22054;51.646;7.078;2022-08-03T10:20:51;29.10;99.90
35613;DHT22;22054;51.646;7.078;2022-08-03T10:23:18;29.10;99.90
35613;DHT22;22054;51.646;7.078;2022-08-03T10:25:52;29.10;99.90
35613;DHT22;22054;51.646;7.078;2022-08-03T10:28:20;29.20;99.90
35613;DHT22;22054;51.646;7.078;2022-08-03T10:30:51;29.20;99.90
35613;DHT22;22054;51.646;7.078;2022-08-03T10:33:26;29.20;99.90
35613;DHT22;22054;51.646;7.078;2022-08-03T10:35:56;29.20;99.90
35613;DHT22;22054;51.646;7.078;2022-08-03T10:38:28;29.40;99.90
35613;DHT22;22054;51.646;7.078;2022-08-03T10:41:02;29.20;99.90
35613;DHT22;22054;51.646;7.078;2022-08-03T10:43:58;29.40;99.90
35613;DHT22;22054;51.646;7.078;2022-08-03T10:46:28;29.70;99.90
35613;DHT22;22054;51.646;7.078;2022-08-03T10:48:54;29.60;99.90
35613;DHT22;22054;51.646;7.078;2022-08-03T10:51:21;29.70;99.90
35613;DHT22;22054;51.646;7.078;2022-08-03T10:53:47;29.80;99.90
35613;DHT22;22054;51.646;7.078;2022-08-03T10:59:16;30.50;93.10
35613;DHT22;22054;51.646;7.078;2022-08-03T11:01:56;30.70;66.40
35613;DHT22;22054;51.646;7.078;2022-08-03T11:04:22;30.80;60.30
35613;DHT22;22054;51.646;7.078;2022-08-03T11:09:52;31.00;40.60
35613;DHT22;22054;51.646;7.078;2022-08-03T11:14:54;30.70;36.40
35613;DHT22;22054;51.646;7.078;2022-08-03T11:17:21;31.00;47.60
35613;DHT22;22054;51.646;7.078;2022-08-03T11:19:49;31.40;56.40
35613;DHT22;22054;51.646;7.078;2022-08-03T11:22:16;32.10;17.10
35613;DHT22;22054;51.646;7.078;2022-08-03T11:32:55;31.80;1.00
35613;DHT22;22054;51.646;7.078;2022-08-03T11:35:31;32.50;1.00
35613;DHT22;22054;51.646;7.078;2022-08-03T11:46:07;34.40;1.00
35613;DHT22;22054;51.646;7.078;2022-08-03T11:48:44;34.10;1.00
35613;DHT22;22054;51.646;7.078;2022-08-03T11:56:18;33.70;1.00
35613;DHT22;22054;51.646;7.078;2022-08-03T11:58:49;33.30;1.00
35613;DHT22;22054;51.646;7.078;2022-08-03T12:01:20;33.90;1.00
35613;DHT22;22054;51.646;7.078;2022-08-03T12:03:48;35.10;1.00
35613;DHT22;22054;51.646;7.078;2022-08-03T12:06:15;35.60;1.00
35613;DHT22;22054;51.646;7.078;2022-08-03T12:08:42;36.00;1.00
35613;DHT22;22054;51.646;7.078;2022-08-03T12:11:11;34.70;1.00
35613;DHT22;22054;51.646;7.078;2022-08-03T12:16:19;34.30;1.00
35613;DHT22;22054;51.646;7.078;2022-08-03T12:19:01;34.30;1.00
35613;DHT22;22054;51.646;7.078;2022-08-03T12:21:28;35.30;1.00
35613;DHT22;22054;51.646;7.078;2022-08-03T12:23:58;36.00;1.00
35613;DHT22;22054;51.646;7.078;2022-08-03T12:26:29;36.90;1.00
35613;DHT22;22054;51.646;7.078;2022-08-03T12:28:56;36.90;1.00
35613;DHT22;22054;51.646;7.078;2022-08-03T12:31:22;36.50;1.00
35613;DHT22;22054;51.646;7.078;2022-08-03T12:34:01;37.10;1.00
35613;DHT22;22054;51.646;7.078;2022-08-03T12:36:31;38.20;1.00
35613;DHT22;22054;51.646;7.078;2022-08-03T12:39:06;39.10;1.00
35613;DHT22;22054;51.646;7.078;2022-08-03T12:41:35;38.40;1.00
35613;DHT22;22054;51.646;7.078;2022-08-03T12:44:07;38.30;1.00
35613;DHT22;22054;51.646;7.078;2022-08-03T12:46:36;37.90;1.00
35613;DHT22;22054;51.646;7.078;2022-08-03T12:49:11;38.60;1.00
35613;DHT22;22054;51.646;7.078;2022-08-03T12:54:19;40.00;1.00
35613;DHT22;22054;51.646;7.078;2022-08-03T12:57:05;40.80;1.00
35613;DHT22;22054;51.646;7.078;2022-08-03T12:59:34;40.60;1.00
35613;DHT22;22054;51.646;7.078;2022-08-03T13:02:14;39.30;1.00
35613;DHT22;22054;51.646;7.078;2022-08-03T13:04:45;38.90;1.00
35613;DHT22;22054;51.646;7.078;2022-08-03T13:07:12;40.90;1.00
35613;DHT22;22054;51.646;7.078;2022-08-03T13:09:53;42.80;1.00
35613;DHT22;22054;51.646;7.078;2022-08-03T13:12:24;44.30;1.00
35613;DHT22;22054;51.646;7.078;2022-08-03T13:14:58;45.60;1.00
35613;DHT22;22054;51.646;7.078;2022-08-03T13:17:25;44.60;1.00
35613;DHT22;22054;51.646;7.078;2022-08-03T13:19:52;41.50;1.00
35613;DHT22;22054;51.646;7.078;2022-08-03T13:22:23;40.10;1.00
35613;DHT22;22054;51.646;7.078;2022-08-03T13:24:53;40.50;1.00
35613;DHT22;22054;51.646;7.078;2022-08-03T13:27:23;40.80;1.00
35613;DHT22;22054;51.646;7.078;2022-08-03T13:29:49;41.30;1.00
35613;DHT22;22054;51.646;7.078;2022-08-03T13:32:17;41.10;1.00
35613;DHT22;22054;51.646;7.078;2022-08-03T13:34:43;40.10;1.00
35613;DHT22;22054;51.646;7.078;2022-08-03T13:37:08;39.60;1.00
35613;DHT22;22054;51.646;7.078;2022-08-03T13:39:36;39.20;1.00
35613;DHT22;22054;51.646;7.078;2022-08-03T13:42:03;40.20;1.00
35613;DHT22;22054;51.646;7.078;2022-08-03T13:44:30;41.10;1.00
35613;DHT22;22054;51.646;7.078;2022-08-03T13:46:56;42.80;1.00
35613;DHT22;22054;51.646;7.078;2022-08-03T13:49:22;43.90;1.00
35613;DHT22;22054;51.646;7.078;2022-08-03T13:51:48;44.00;1.00
35613;DHT22;22054;51.646;7.078;2022-08-03T13:54:13;43.40;1.00
35613;DHT22;22054;51.646;7.078;2022-08-03T13:56:39;43.20;1.00
35613;DHT22;22054;51.646;7.078;2022-08-03T13:59:05;42.50;1.00
35613;DHT22;22054;51.646;7.078;2022-08-03T14:01:30;43.70;1.00
35613;DHT22;22054;51.646;7.078;2022-08-03T14:03:56;44.60;1.00
35613;DHT22;22054;51.646;7.078;2022-08-03T14:06:23;44.40;1.00
35613;DHT22;22054;51.646;7.078;2022-08-03T14:08:49;43.40;1.00
35613;DHT22;22054;51.646;7.078;2022-08-03T14:11:16;43.50;1.00
35613;DHT22;22054;51.646;7.078;2022-08-03T14:13:43;43.80;1.00
35613;DHT22;22054;51.646;7.078;2022-08-03T14:16:10;43.70;1.00
35613;DHT22;22054;51.646;7.078;2022-08-03T14:18:36;44.70;1.00
35613;DHT22;22054;51.646;7.078;2022-08-03T14:21:03;44.80;1.00
35613;DHT22;22054;51.646;7.078;2022-08-03T14:23:29;42.90;1.00
35613;DHT22;22054;51.646;7.078;2022-08-03T14:25:55;42.00;1.00
35613;DHT22;22054;51.646;7.078;2022-08-03T14:28:22;41.60;1.00
35613;DHT22;22054;51.646;7.078;2022-08-03T14:30:49;42.20;1.00
35613;DHT22;22054;51.646;7.078;2022-08-03T14:33:16;42.10;1.00
35613;DHT22;22054;51.646;7.078;2022-08-03T14:35:42;43.10;1.00
35613;DHT22;22054;51.646;7.078;2022-08-03T14:38:08;43.30;1.00
35613;DHT22;22054;51.646;7.078;2022-08-03T14:40:33;43.60;1.00
35613;DHT22;22054;51.646;7.078;2022-08-03T14:42:59;43.90;1.00
35613;DHT22;22054;51.646;7.078;2022-08-03T14:45:25;44.60;1.00
35613;DHT22;22054;51.646;7.078;2022-08-03T14:47:50;45.40;1.00
35613;DHT22;22054;51.646;7.078;2022-08-03T14:50:16;46.00;1.00
35613;DHT22;22054;51.646;7.078;2022-08-03T14:52:42;44.60;1.00
35613;DHT22;22054;51.646;7.078;2022-08-03T14:55:08;43.50;1.00
35613;DHT22;22054;51.646;7.078;2022-08-03T14:57:34;41.90;1.00
35613;DHT22;22054;51.646;7.078;2022-08-03T15:00:00;42.00;1.00
35613;DHT22;22054;51.646;7.078;2022-08-03T15:02:26;42.20;1.00
35613;DHT22;22054;51.646;7.078;2022-08-03T15:04:53;42.10;1.00
35613;DHT22;22054;51.646;7.078;2022-08-03T15:07:19;43.20;1.00
35613;DHT22;22054;51.646;7.078;2022-08-03T15:09:45;42.80;1.00
35613;DHT22;22054;51.646;7.078;2022-08-03T15:12:10;42.20;1.00
35613;DHT22;22054;51.646;7.078;2022-08-03T15:14:36;41.40;1.00
35613;DHT22;22054;51.646;7.078;2022-08-03T15:17:02;41.40;1.00
35613;DHT22;22054;51.646;7.078;2022-08-03T15:19:28;42.60;1.00
35613;DHT22;22054;51.646;7.078;2022-08-03T15:21:54;43.50;1.00
35613;DHT22;22054;51.646;7.078;2022-08-03T15:24:20;43.90;1.00
35613;DHT22;22054;51.646;7.078;2022-08-03T15:26:45;44.50;1.00
35613;DHT22;22054;51.646;7.078;2022-08-03T15:29:11;45.10;1.00
35613;DHT22;22054;51.646;7.078;2022-08-03T15:31:38;44.60;1.00
35613;DHT22;22054;51.646;7.078;2022-08-03T15:34:04;43.30;1.00
35613;DHT22;22054;51.646;7.078;2022-08-03T15:36:31;41.70;1.00
35613;DHT22;22054;51.646;7.078;2022-08-03T15:38:57;40.40;1.00
35613;DHT22;22054;51.646;7.078;2022-08-03T15:41:23;39.40;1.00
35613;DHT22;22054;51.646;7.078;2022-08-03T15:43:48;38.10;1.00
35613;DHT22;22054;51.646;7.078;2022-08-03T15:46:17;37.10;1.00
35613;DHT22;22054;51.646;7.078;2022-08-03T15:48:43;36.40;1.00
35613;DHT22;22054;51.646;7.078;2022-08-03T15:51:10;35.90;1.00
35613;DHT22;22054;51.646;7.078;2022-08-03T15:53:36;35.20;1.00
35613;DHT22;22054;51.646;7.078;2022-08-03T15:56:03;34.60;1.00
35613;DHT22;22054;51.646;7.078;2022-08-03T15:58:31;34.10;1.00
35613;DHT22;22054;51.646;7.078;2022-08-03T16:00:58;33.90;1.00
35613;DHT22;22054;51.646;7.078;2022-08-03T16:03:25;33.90;1.00
35613;DHT22;22054;51.646;7.078;2022-08-03T16:05:53;33.90;1.00
35613;DHT22;22054;51.646;7.078;2022-08-03T16:08:19;34.00;1.00
35613;DHT22;22054;51.646;7.078;2022-08-03T16:10:46;33.90;1.00
35613;DHT22;22054;51.646;7.078;2022-08-03T16:13:12;34.00;1.00
35613;DHT22;22054;51.646;7.078;2022-08-03T16:15:38;34.30;1.00
35613;DHT22;22054;51.646;7.078;2022-08-03T16:18:05;33.90;1.00
35613;DHT22;22054;51.646;7.078;2022-08-03T16:20:31;33.40;1.00
35613;DHT22;22054;51.646;7.078;2022-08-03T16:22:57;33.30;1.00
35613;DHT22;22054;51.646;7.078;2022-08-03T16:25:22;33.10;1.00
35613;DHT22;22054;51.646;7.078;2022-08-03T16:27:48;33.10;1.00
35613;DHT22;22054;51.646;7.078;2022-08-03T16:30:14;32.90;1.00
35613;DHT22;22054;51.646;7.078;2022-08-03T16:32:45;33.10;1.00
35613;DHT22;22054;51.646;7.078;2022-08-03T16:35:11;32.80;1.00
35613;DHT22;22054;51.646;7.078;2022-08-03T16:37:38;32.90;1.00
35613;DHT22;22054;51.646;7.078;2022-08-03T16:40:05;32.80;1.00